sensor_id;sensor_type;location;lat;lon;timestamp;pressure;altitude;pressure_sealevel;temperature;humidity
71361;BME280;59166;48.908;1.870;2023-06-24T00:04:56;101282.59;;;18.95;89.71
71361;BME280;59166;48.908;1.870;2023-06-24T00:09:57;101274.44;;;18.90;89.51
71361;BME280;59166;48.908;1.870;2023-06-24T00:14:59;101272.75;;;18.71;90.62
71361;BME280;59166;48.908;1.870;2023-06-24T00:20:00;101276.44;;;18.61;91.37
71361;BME280;59166;48.908;1.870;2023-06-24T00:25:01;101271.63;;;18.48;92.77
71361;BME280;59166;48.908;1.870;2023-06-24T00:30:04;101272.84;;;18.37;93.01
71361;BME280;59166;48.908;1.870;2023-06-24T00:35:06;101277.00;;;18.29;94.11
71361;BME280;59166;48.908;1.870;2023-06-24T00:40:08;101278.50;;;18.17;94.85
71361;BME280;59166;48.908;1.870;2023-06-24T00:45:11;101276.47;;;17.93;97.12
71361;BME280;59166;48.908;1.870;2023-06-24T00:50:12;101270.84;;;17.80;97.75
71361;BME280;59166;48.908;1.870;2023-06-24T00:55:15;101265.38;;;17.80;97.60
71361;BME280;59166;48.908;1.870;2023-06-24T01:00:18;101282.03;;;17.78;97.83
71361;BME280;59166;48.908;1.870;2023-06-24T01:05:19;101280.16;;;17.74;97.91
71361;BME280;59166;48.908;1.870;2023-06-24T01:10:20;101272.53;;;17.71;98.32
71361;BME280;59166;48.908;1.870;2023-06-24T01:15:22;101265.41;;;17.75;97.40
71361;BME280;59166;48.908;1.870;2023-06-24T01:20:27;101265.44;;;17.70;97.21
71361;BME280;59166;48.908;1.870;2023-06-24T01:25:43;101259.19;;;17.64;97.50
71361;BME280;59166;48.908;1.870;2023-06-24T01:31:23;101260.38;;;17.48;99.23
71361;BME280;59166;48.908;1.870;2023-06-24T01:36:28;101254.72;;;17.39;99.33
71361;BME280;59166;48.908;1.870;2023-06-24T01:41:40;101254.25;;;17.22;100.00
71361;BME280;59166;48.908;1.870;2023-06-24T01:46:44;101254.00;;;17.14;100.00
71361;BME280;59166;48.908;1.870;2023-06-24T01:51:47;101249.38;;;17.09;100.00
71361;BME280;59166;48.908;1.870;2023-06-24T01:56:49;101247.50;;;17.05;100.00
71361;BME280;59166;48.908;1.870;2023-06-24T02:01:54;101252.38;;;17.03;100.00
71361;BME280;59166;48.908;1.870;2023-06-24T02:06:56;101252.69;;;16.96;100.00
71361;BME280;59166;48.908;1.870;2023-06-24T02:11:59;101255.50;;;16.81;100.00
71361;BME280;59166;48.908;1.870;2023-06-24T02:17:05;101265.34;;;16.77;100.00
71361;BME280;59166;48.908;1.870;2023-06-24T02:22:07;101257.97;;;16.72;100.00
71361;BME280;59166;48.908;1.870;2023-06-24T02:27:08;101254.16;;;16.73;100.00
71361;BME280;59166;48.908;1.870;2023-06-24T02:32:11;101253.88;;;16.75;100.00
71361;BME280;59166;48.908;1.870;2023-06-24T02:37:12;101250.88;;;16.76;100.00
71361;BME280;59166;48.908;1.870;2023-06-24T02:42:13;101246.53;;;16.75;100.00
71361;BME280;59166;48.908;1.870;2023-06-24T02:47:16;101244.06;;;16.69;100.00
71361;BME280;59166;48.908;1.870;2023-06-24T02:52:17;101244.34;;;16.62;100.00
71361;BME280;59166;48.908;1.870;2023-06-24T02:57:18;101246.03;;;16.53;100.00
71361;BME280;59166;48.908;1.870;2023-06-24T03:02:20;101243.59;;;16.47;100.00
71361;BME280;59166;48.908;1.870;2023-06-24T03:07:21;101236.25;;;16.32;100.00
71361;BME280;59166;48.908;1.870;2023-06-24T03:12:22;101234.38;;;16.17;100.00
71361;BME280;59166;48.908;1.870;2023-06-24T03:17:24;101241.19;;;16.15;100.00
71361;BME280;59166;48.908;1.870;2023-06-24T03:22:25;101239.00;;;16.12;100.00
71361;BME280;59166;48.908;1.870;2023-06-24T03:27:25;101245.56;;;16.11;100.00
71361;BME280;59166;48.908;1.870;2023-06-24T03:32:28;101251.25;;;15.99;100.00
71361;BME280;59166;48.908;1.870;2023-06-24T03:37:28;101247.72;;;15.93;100.00
71361;BME280;59166;48.908;1.870;2023-06-24T03:42:29;101247.16;;;15.86;100.00
71361;BME280;59166;48.908;1.870;2023-06-24T03:47:31;101254.00;;;15.84;100.00
71361;BME280;59166;48.908;1.870;2023-06-24T03:52:32;101246.91;;;15.83;100.00
71361;BME280;59166;48.908;1.870;2023-06-24T03:57:32;101242.81;;;15.80;100.00
71361;BME280;59166;48.908;1.870;2023-06-24T04:02:34;101245.25;;;15.82;100.00
71361;BME280;59166;48.908;1.870;2023-06-24T04:07:35;101243.34;;;15.82;100.00
71361;BME280;59166;48.908;1.870;2023-06-24T04:12:36;101245.00;;;15.83;100.00
71361;BME280;59166;48.908;1.870;2023-06-24T04:17:38;101246.59;;;15.84;100.00
71361;BME280;59166;48.908;1.870;2023-06-24T04:22:40;101256.16;;;15.87;100.00
71361;BME280;59166;48.908;1.870;2023-06-24T04:27:41;101261.59;;;15.92;100.00
71361;BME280;59166;48.908;1.870;2023-06-24T04:32:43;101263.25;;;15.93;100.00
71361;BME280;59166;48.908;1.870;2023-06-24T04:37:44;101264.34;;;15.97;100.00
71361;BME280;59166;48.908;1.870;2023-06-24T04:42:44;101267.06;;;15.92;100.00
71361;BME280;59166;48.908;1.870;2023-06-24T04:47:46;101266.25;;;15.86;100.00
71361;BME280;59166;48.908;1.870;2023-06-24T04:52:52;101261.88;;;15.75;100.00
71361;BME280;59166;48.908;1.870;2023-06-24T04:57:53;101266.50;;;15.80;100.00
71361;BME280;59166;48.908;1.870;2023-06-24T05:02:55;101265.41;;;15.81;100.00
71361;BME280;59166;48.908;1.870;2023-06-24T05:07:55;101268.41;;;15.84;100.00
71361;BME280;59166;48.908;1.870;2023-06-24T05:12:56;101269.25;;;15.90;100.00
71361;BME280;59166;48.908;1.870;2023-06-24T05:17:58;101262.16;;;15.94;100.00
71361;BME280;59166;48.908;1.870;2023-06-24T05:22:58;101262.97;;;16.05;100.00
71361;BME280;59166;48.908;1.870;2023-06-24T05:27:59;101272.25;;;16.19;100.00
71361;BME280;59166;48.908;1.870;2023-06-24T05:33:01;101267.06;;;16.22;100.00
71361;BME280;59166;48.908;1.870;2023-06-24T05:38:02;101268.44;;;16.30;100.00
71361;BME280;59166;48.908;1.870;2023-06-24T05:43:02;101267.59;;;16.39;100.00
71361;BME280;59166;48.908;1.870;2023-06-24T05:48:05;101263.22;;;16.43;100.00
71361;BME280;59166;48.908;1.870;2023-06-24T05:53:05;101280.13;;;16.56;100.00
71361;BME280;59166;48.908;1.870;2023-06-24T05:58:06;101277.88;;;16.73;100.00
71361;BME280;59166;48.908;1.870;2023-06-24T06:03:08;101278.69;;;16.83;100.00
71361;BME280;59166;48.908;1.870;2023-06-24T06:08:09;101280.50;;;17.03;100.00
71361;BME280;59166;48.908;1.870;2023-06-24T06:13:09;101277.47;;;17.20;100.00
71361;BME280;59166;48.908;1.870;2023-06-24T06:18:11;101266.19;;;17.36;100.00
71361;BME280;59166;48.908;1.870;2023-06-24T06:23:12;101276.53;;;17.44;100.00
71361;BME280;59166;48.908;1.870;2023-06-24T06:28:13;101278.66;;;17.53;100.00
71361;BME280;59166;48.908;1.870;2023-06-24T06:33:15;101277.91;;;17.86;100.00
71361;BME280;59166;48.908;1.870;2023-06-24T06:38:16;101279.66;;;18.06;100.00
71361;BME280;59166;48.908;1.870;2023-06-24T06:43:16;101276.91;;;18.39;95.82
71361;BME280;59166;48.908;1.870;2023-06-24T06:48:18;101276.63;;;18.65;95.04
71361;BME280;59166;48.908;1.870;2023-06-24T06:53:19;101276.63;;;18.88;93.51
71361;BME280;59166;48.908;1.870;2023-06-24T06:58:20;101273.88;;;19.17;93.13
71361;BME280;59166;48.908;1.870;2023-06-24T07:03:22;101270.25;;;19.40;87.24
71361;BME280;59166;48.908;1.870;2023-06-24T07:08:23;101281.97;;;19.65;87.62
71361;BME280;59166;48.908;1.870;2023-06-24T07:13:24;101275.34;;;19.84;88.22
71361;BME280;59166;48.908;1.870;2023-06-24T07:18:28;101282.69;;;20.08;84.81
71361;BME280;59166;48.908;1.870;2023-06-24T07:23:28;101279.59;;;20.28;81.01
71361;BME280;59166;48.908;1.870;2023-06-24T07:28:29;101289.09;;;20.49;78.78
71361;BME280;59166;48.908;1.870;2023-06-24T07:33:31;101277.53;;;20.66;78.40
71361;BME280;59166;48.908;1.870;2023-06-24T07:38:32;101281.22;;;21.02;69.97
71361;BME280;59166;48.908;1.870;2023-06-24T07:43:32;101284.16;;;21.19;65.76
71361;BME280;59166;48.908;1.870;2023-06-24T07:48:34;101282.00;;;21.43;65.12
71361;BME280;59166;48.908;1.870;2023-06-24T07:53:35;101282.03;;;21.66;68.60
71361;BME280;59166;48.908;1.870;2023-06-24T07:58:35;101280.06;;;21.80;60.36
71361;BME280;59166;48.908;1.870;2023-06-24T08:03:38;101277.97;;;21.99;65.77
71361;BME280;59166;48.908;1.870;2023-06-24T08:08:38;101266.50;;;22.28;62.18
71361;BME280;59166;48.908;1.870;2023-06-24T08:13:39;101263.34;;;22.43;59.85
71361;BME280;59166;48.908;1.870;2023-06-24T08:18:41;101260.16;;;22.80;59.14
71361;BME280;59166;48.908;1.870;2023-06-24T08:23:42;101255.53;;;23.15;61.87
71361;BME280;59166;48.908;1.870;2023-06-24T08:28:42;101253.03;;;23.44;55.14
71361;BME280;59166;48.908;1.870;2023-06-24T08:33:45;101250.59;;;23.77;56.29
71361;BME280;59166;48.908;1.870;2023-06-24T08:38:46;101240.97;;;24.09;53.32
71361;BME280;59166;48.908;1.870;2023-06-24T08:43:47;101240.22;;;24.46;51.76
71361;BME280;59166;48.908;1.870;2023-06-24T08:48:54;101235.25;;;24.78;52.99
71361;BME280;59166;48.908;1.870;2023-06-24T08:53:59;101244.56;;;25.02;52.65
71361;BME280;59166;48.908;1.870;2023-06-24T08:58:59;101244.34;;;25.08;49.79
71361;BME280;59166;48.908;1.870;2023-06-24T09:04:02;101239.25;;;25.18;51.72
71361;BME280;59166;48.908;1.870;2023-06-24T09:09:03;101233.28;;;25.58;53.63
71361;BME280;59166;48.908;1.870;2023-06-24T09:14:03;101238.16;;;26.14;49.78
71361;BME280;59166;48.908;1.870;2023-06-24T09:19:05;101225.91;;;26.72;46.04
71361;BME280;59166;48.908;1.870;2023-06-24T09:24:06;101217.81;;;26.91;47.41
71361;BME280;59166;48.908;1.870;2023-06-24T09:29:07;101222.09;;;27.01;46.72
71361;BME280;59166;48.908;1.870;2023-06-24T09:34:12;101212.63;;;27.54;48.26
71361;BME280;59166;48.908;1.870;2023-06-24T09:39:13;101208.88;;;27.90;48.35
71361;BME280;59166;48.908;1.870;2023-06-24T09:44:13;101204.16;;;27.90;46.82
71361;BME280;59166;48.908;1.870;2023-06-24T09:49:18;101205.00;;;28.07;45.38
71361;BME280;59166;48.908;1.870;2023-06-24T09:54:18;101189.16;;;28.07;46.53
71361;BME280;59166;48.908;1.870;2023-06-24T09:59:20;101192.44;;;27.69;47.10
71361;BME280;59166;48.908;1.870;2023-06-24T10:04:23;101180.31;;;27.62;44.22
71361;BME280;59166;48.908;1.870;2023-06-24T10:09:25;101187.03;;;27.61;44.33
71361;BME280;59166;48.908;1.870;2023-06-24T10:14:25;101176.78;;;27.37;47.90
71361;BME280;59166;48.908;1.870;2023-06-24T10:19:28;101168.44;;;27.09;47.68
71361;BME280;59166;48.908;1.870;2023-06-24T10:24:29;101149.91;;;27.25;45.82
71361;BME280;59166;48.908;1.870;2023-06-24T10:29:31;101153.06;;;27.51;47.68
71361;BME280;59166;48.908;1.870;2023-06-24T10:34:41;101139.69;;;27.85;46.79
71361;BME280;59166;48.908;1.870;2023-06-24T10:39:51;101129.88;;;28.03;46.33
71361;BME280;59166;48.908;1.870;2023-06-24T10:44:53;101135.84;;;28.17;45.94
71361;BME280;59166;48.908;1.870;2023-06-24T10:49:55;101137.06;;;28.35;46.00
71361;BME280;59166;48.908;1.870;2023-06-24T10:54:57;101126.38;;;28.53;47.68
71361;BME280;59166;48.908;1.870;2023-06-24T10:59:58;101117.13;;;28.99;46.42
71361;BME280;59166;48.908;1.870;2023-06-24T11:05:01;101115.19;;;29.19;46.97
71361;BME280;59166;48.908;1.870;2023-06-24T11:10:03;101118.31;;;29.18;43.30
71361;BME280;59166;48.908;1.870;2023-06-24T11:15:06;101103.22;;;28.99;42.74
71361;BME280;59166;48.908;1.870;2023-06-24T11:20:10;101105.25;;;28.83;42.94
71361;BME280;59166;48.908;1.870;2023-06-24T11:25:18;101106.22;;;28.91;43.39
71361;BME280;59166;48.908;1.870;2023-06-24T11:30:19;101085.72;;;29.18;41.49
71361;BME280;59166;48.908;1.870;2023-06-24T11:35:21;101079.69;;;29.16;42.50
71361;BME280;59166;48.908;1.870;2023-06-24T11:40:22;101082.97;;;29.60;39.50
71361;BME280;59166;48.908;1.870;2023-06-24T11:45:23;101074.44;;;29.49;39.24
71361;BME280;59166;48.908;1.870;2023-06-24T11:50:27;101070.13;;;29.52;42.33
71361;BME280;59166;48.908;1.870;2023-06-24T11:55:27;101058.03;;;29.86;40.85
71361;BME280;59166;48.908;1.870;2023-06-24T12:00:29;101052.88;;;29.88;41.64
71361;BME280;59166;48.908;1.870;2023-06-24T12:05:33;101048.47;;;30.10;41.40
71361;BME280;59166;48.908;1.870;2023-06-24T12:10:35;101045.78;;;30.17;41.30
71361;BME280;59166;48.908;1.870;2023-06-24T12:15:36;101038.97;;;30.15;40.11
71361;BME280;59166;48.908;1.870;2023-06-24T12:20:38;101026.81;;;30.26;37.63
71361;BME280;59166;48.908;1.870;2023-06-24T12:25:39;101032.91;;;30.62;38.06
71361;BME280;59166;48.908;1.870;2023-06-24T12:30:40;101006.38;;;30.75;36.10
71361;BME280;59166;48.908;1.870;2023-06-24T12:35:42;101009.78;;;30.91;37.14
71361;BME280;59166;48.908;1.870;2023-06-24T12:40:43;101006.91;;;30.84;37.39
71361;BME280;59166;48.908;1.870;2023-06-24T12:45:44;100999.47;;;30.98;37.80
71361;BME280;59166;48.908;1.870;2023-06-24T12:50:46;101002.09;;;31.14;34.41
71361;BME280;59166;48.908;1.870;2023-06-24T12:55:47;100993.06;;;31.28;35.71
71361;BME280;59166;48.908;1.870;2023-06-24T13:00:48;100983.34;;;31.55;34.39
71361;BME280;59166;48.908;1.870;2023-06-24T13:05:51;100991.41;;;31.60;33.07
71361;BME280;59166;48.908;1.870;2023-06-24T13:10:51;100984.13;;;31.52;34.68
71361;BME280;59166;48.908;1.870;2023-06-24T13:15:52;100971.25;;;31.84;31.08
71361;BME280;59166;48.908;1.870;2023-06-24T13:20:54;100962.97;;;32.02;32.37
71361;BME280;59166;48.908;1.870;2023-06-24T13:25:55;100966.97;;;32.01;29.76
71361;BME280;59166;48.908;1.870;2023-06-24T13:30:56;100955.75;;;31.97;31.24
71361;BME280;59166;48.908;1.870;2023-06-24T13:35:58;100946.41;;;32.27;30.61
71361;BME280;59166;48.908;1.870;2023-06-24T13:40:59;100949.53;;;32.18;29.83
71361;BME280;59166;48.908;1.870;2023-06-24T13:46:00;100944.59;;;32.01;28.19
71361;BME280;59166;48.908;1.870;2023-06-24T13:51:02;100944.63;;;31.53;32.36
71361;BME280;59166;48.908;1.870;2023-06-24T13:56:03;100934.69;;;32.11;32.92
71361;BME280;59166;48.908;1.870;2023-06-24T14:01:04;100935.31;;;32.51;30.70
71361;BME280;59166;48.908;1.870;2023-06-24T14:06:06;100923.41;;;32.72;31.17
71361;BME280;59166;48.908;1.870;2023-06-24T14:11:07;100925.44;;;32.79;28.52
71361;BME280;59166;48.908;1.870;2023-06-24T14:16:08;100917.03;;;32.82;31.30
71361;BME280;59166;48.908;1.870;2023-06-24T14:21:10;100904.22;;;32.67;30.52
71361;BME280;59166;48.908;1.870;2023-06-24T14:26:11;100901.75;;;32.55;29.73
71361;BME280;59166;48.908;1.870;2023-06-24T14:31:12;100898.13;;;32.47;28.95
71361;BME280;59166;48.908;1.870;2023-06-24T14:36:14;100881.38;;;32.58;30.00
71361;BME280;59166;48.908;1.870;2023-06-24T14:41:15;100883.44;;;32.75;30.63
71361;BME280;59166;48.908;1.870;2023-06-24T14:46:15;100867.06;;;32.81;29.44
71361;BME280;59166;48.908;1.870;2023-06-24T14:51:17;100877.09;;;32.96;31.82
71361;BME280;59166;48.908;1.870;2023-06-24T14:56:18;100868.28;;;32.80;30.43
71361;BME280;59166;48.908;1.870;2023-06-24T15:01:19;100861.91;;;33.04;29.87
71361;BME280;59166;48.908;1.870;2023-06-24T15:06:21;100851.50;;;33.19;30.78
71361;BME280;59166;48.908;1.870;2023-06-24T15:11:22;100831.53;;;33.27;27.82
71361;BME280;59166;48.908;1.870;2023-06-24T15:16:22;100847.91;;;32.97;29.68
71361;BME280;59166;48.908;1.870;2023-06-24T15:21:24;100841.88;;;32.81;28.61
71361;BME280;59166;48.908;1.870;2023-06-24T15:26:25;100841.38;;;32.58;31.23
71361;BME280;59166;48.908;1.870;2023-06-24T15:31:26;100833.78;;;32.51;30.03
71361;BME280;59166;48.908;1.870;2023-06-24T15:36:28;100826.50;;;32.18;30.23
71361;BME280;59166;48.908;1.870;2023-06-24T15:41:29;100820.09;;;32.14;30.64
71361;BME280;59166;48.908;1.870;2023-06-24T15:46:29;100805.03;;;32.47;29.99
71361;BME280;59166;48.908;1.870;2023-06-24T15:51:32;100793.81;;;32.58;31.37
71361;BME280;59166;48.908;1.870;2023-06-24T15:56:33;100795.47;;;32.66;31.43
71361;BME280;59166;48.908;1.870;2023-06-24T16:01:34;100790.72;;;32.87;29.98
71361;BME280;59166;48.908;1.870;2023-06-24T16:06:36;100786.16;;;32.16;31.24
71361;BME280;59166;48.908;1.870;2023-06-24T16:11:37;100781.38;;;32.16;31.96
71361;BME280;59166;48.908;1.870;2023-06-24T16:16:37;100773.78;;;32.24;31.48
71361;BME280;59166;48.908;1.870;2023-06-24T16:21:40;100775.38;;;32.21;32.14
71361;BME280;59166;48.908;1.870;2023-06-24T16:26:41;100768.22;;;32.34;31.95
71361;BME280;59166;48.908;1.870;2023-06-24T16:31:41;100768.19;;;32.13;33.01
71361;BME280;59166;48.908;1.870;2023-06-24T16:36:44;100771.31;;;32.05;33.08
71361;BME280;59166;48.908;1.870;2023-06-24T16:41:45;100762.56;;;32.10;33.59
71361;BME280;59166;48.908;1.870;2023-06-24T16:46:46;100759.00;;;32.16;33.89
71361;BME280;59166;48.908;1.870;2023-06-24T16:51:48;100763.34;;;32.07;32.55
71361;BME280;59166;48.908;1.870;2023-06-24T16:56:49;100748.72;;;31.55;33.87
71361;BME280;59166;48.908;1.870;2023-06-24T17:01:50;100754.19;;;31.37;33.83
71361;BME280;59166;48.908;1.870;2023-06-24T17:06:52;100750.19;;;31.31;33.28
71361;BME280;59166;48.908;1.870;2023-06-24T17:11:53;100734.22;;;31.28;32.73
71361;BME280;59166;48.908;1.870;2023-06-24T17:16:54;100726.75;;;30.92;33.48
71361;BME280;59166;48.908;1.870;2023-06-24T17:21:56;100731.34;;;30.67;35.15
71361;BME280;59166;48.908;1.870;2023-06-24T17:26:57;100726.53;;;30.64;35.06
71361;BME280;59166;48.908;1.870;2023-06-24T17:31:58;100720.94;;;30.23;34.99
71361;BME280;59166;48.908;1.870;2023-06-24T17:37:00;100718.00;;;30.09;35.23
71361;BME280;59166;48.908;1.870;2023-06-24T17:42:01;100719.53;;;30.03;35.46
71361;BME280;59166;48.908;1.870;2023-06-24T17:47:02;100715.63;;;29.78;35.39
71361;BME280;59166;48.908;1.870;2023-06-24T17:52:04;100723.19;;;29.47;36.49
71361;BME280;59166;48.908;1.870;2023-06-24T17:57:05;100704.06;;;29.20;37.32
71361;BME280;59166;48.908;1.870;2023-06-24T18:02:06;100709.06;;;29.07;37.32
71361;BME280;59166;48.908;1.870;2023-06-24T18:07:09;100705.66;;;28.91;37.86
71361;BME280;59166;48.908;1.870;2023-06-24T18:12:09;100700.91;;;28.69;39.44
71361;BME280;59166;48.908;1.870;2023-06-24T18:17:10;100701.78;;;28.50;40.38
71361;BME280;59166;48.908;1.870;2023-06-24T18:22:13;100704.25;;;28.32;39.74
71361;BME280;59166;48.908;1.870;2023-06-24T18:27:16;100699.28;;;28.22;40.04
71361;BME280;59166;48.908;1.870;2023-06-24T18:32:29;100695.16;;;28.13;41.37
71361;BME280;59166;48.908;1.870;2023-06-24T18:37:54;100689.22;;;27.95;41.26
71361;BME280;59166;48.908;1.870;2023-06-24T18:43:28;100691.16;;;27.72;42.14
71361;BME280;59166;48.908;1.870;2023-06-24T18:48:50;100694.38;;;27.55;43.38
71361;BME280;59166;48.908;1.870;2023-06-24T18:59:38;100686.50;;;27.41;44.92
71361;BME280;59166;48.908;1.870;2023-06-24T19:04:51;100675.56;;;27.29;45.51
71361;BME280;59166;48.908;1.870;2023-06-24T19:21:03;100679.19;;;26.79;47.61
71361;BME280;59166;48.908;1.870;2023-06-24T19:26:05;100668.34;;;26.58;48.58
71361;BME280;59166;48.908;1.870;2023-06-24T19:31:08;100668.50;;;26.49;48.37
71361;BME280;59166;48.908;1.870;2023-06-24T19:36:09;100666.28;;;26.39;48.95
71361;BME280;59166;48.908;1.870;2023-06-24T19:41:09;100673.25;;;26.33;49.60
71361;BME280;59166;48.908;1.870;2023-06-24T19:46:12;100679.09;;;26.28;49.91
71361;BME280;59166;48.908;1.870;2023-06-24T19:51:13;100665.88;;;26.10;49.79
71361;BME280;59166;48.908;1.870;2023-06-24T19:56:14;100665.88;;;25.94;50.71
71361;BME280;59166;48.908;1.870;2023-06-24T20:01:16;100664.75;;;25.83;50.63
71361;BME280;59166;48.908;1.870;2023-06-24T20:06:17;100669.47;;;25.67;51.29
71361;BME280;59166;48.908;1.870;2023-06-24T20:11:18;100663.06;;;25.50;51.28
71361;BME280;59166;48.908;1.870;2023-06-24T20:16:21;100665.03;;;25.38;51.55
71361;BME280;59166;48.908;1.870;2023-06-24T20:21:22;100675.78;;;25.27;52.21
71361;BME280;59166;48.908;1.870;2023-06-24T20:26:22;100666.47;;;25.20;52.43
71361;BME280;59166;48.908;1.870;2023-06-24T20:31:25;100662.91;;;25.07;52.74
71361;BME280;59166;48.908;1.870;2023-06-24T20:36:26;100672.28;;;25.02;53.03
71361;BME280;59166;48.908;1.870;2023-06-24T20:41:28;100675.84;;;24.91;53.44
71361;BME280;59166;48.908;1.870;2023-06-24T20:46:30;100665.25;;;24.81;53.69
71361;BME280;59166;48.908;1.870;2023-06-24T20:51:31;100666.06;;;24.69;54.04
71361;BME280;59166;48.908;1.870;2023-06-24T20:56:32;100677.22;;;24.61;54.66
71361;BME280;59166;48.908;1.870;2023-06-24T21:01:34;100671.13;;;24.55;54.96
71361;BME280;59166;48.908;1.870;2023-06-24T21:06:35;100668.94;;;24.48;55.01
71361;BME280;59166;48.908;1.870;2023-06-24T21:11:36;100669.13;;;24.43;55.22
71361;BME280;59166;48.908;1.870;2023-06-24T21:16:38;100670.50;;;24.37;55.77
71361;BME280;59166;48.908;1.870;2023-06-24T21:21:39;100667.41;;;24.27;56.26
71361;BME280;59166;48.908;1.870;2023-06-24T21:26:40;100657.47;;;24.14;56.52
71361;BME280;59166;48.908;1.870;2023-06-24T21:31:43;100660.34;;;24.05;57.90
71361;BME280;59166;48.908;1.870;2023-06-24T21:36:44;100651.75;;;23.86;58.25
71361;BME280;59166;48.908;1.870;2023-06-24T21:41:45;100652.72;;;23.69;58.84
71361;BME280;59166;48.908;1.870;2023-06-24T21:46:47;100645.22;;;23.58;59.55
71361;BME280;59166;48.908;1.870;2023-06-24T21:51:48;100634.47;;;23.44;59.96
71361;BME280;59166;48.908;1.870;2023-06-24T21:56:48;100636.63;;;23.38;59.86
71361;BME280;59166;48.908;1.870;2023-06-24T22:01:51;100632.16;;;23.25;60.91
71361;BME280;59166;48.908;1.870;2023-06-24T22:06:52;100631.22;;;23.21;61.02
71361;BME280;59166;48.908;1.870;2023-06-24T22:11:53;100645.75;;;23.10;61.29
71361;BME280;59166;48.908;1.870;2023-06-24T22:16:55;100645.34;;;22.99;62.14
71361;BME280;59166;48.908;1.870;2023-06-24T22:21:56;100644.88;;;22.97;61.75
71361;BME280;59166;48.908;1.870;2023-06-24T22:26:57;100637.78;;;22.87;61.93
71361;BME280;59166;48.908;1.870;2023-06-24T22:31:59;100630.53;;;22.83;62.08
71361;BME280;59166;48.908;1.870;2023-06-24T22:37:00;100627.44;;;22.84;62.30
71361;BME280;59166;48.908;1.870;2023-06-24T22:42:01;100622.81;;;22.76;62.05
71361;BME280;59166;48.908;1.870;2023-06-24T22:47:04;100623.34;;;22.70;62.29
71361;BME280;59166;48.908;1.870;2023-06-24T22:52:06;100614.78;;;22.63;62.58
71361;BME280;59166;48.908;1.870;2023-06-24T22:57:07;100614.44;;;22.64;62.69
71361;BME280;59166;48.908;1.870;2023-06-24T23:02:11;100609.75;;;22.65;62.43
71361;BME280;59166;48.908;1.870;2023-06-24T23:07:12;100602.50;;;22.60;62.53
71361;BME280;59166;48.908;1.870;2023-06-24T23:12:13;100607.19;;;22.60;61.89
71361;BME280;59166;48.908;1.870;2023-06-24T23:17:17;100604.09;;;22.61;62.10
71361;BME280;59166;48.908;1.870;2023-06-24T23:22:18;100596.56;;;22.49;62.04
71361;BME280;59166;48.908;1.870;2023-06-24T23:27:19;100581.81;;;22.45;62.28
71361;BME280;59166;48.908;1.870;2023-06-24T23:32:23;100580.34;;;22.48;61.94
71361;BME280;59166;48.908;1.870;2023-06-24T23:37:25;100578.88;;;22.50;61.57
71361;BME280;59166;48.908;1.870;2023-06-24T23:42:27;100582.94;;;22.44;61.63
71361;BME280;59166;48.908;1.870;2023-06-24T23:47:29;100585.69;;;22.44;62.13
71361;BME280;59166;48.908;1.870;2023-06-24T23:52:30;100584.75;;;22.40;62.39
71361;BME280;59166;48.908;1.870;2023-06-24T23:57:31;100571.22;;;22.27;62.85
